Time;durP1;ratioP1;P1;durP2;ratioP2;P2;SDS_P1;SDS_P2;PMS_P1;PMS_P2;Temp;Humidity;BMP_temperature;BMP_pressure;BME280_temperature;BME280_humidity;BME280_pressure;Samples;Min_cycle;Max_cycle;Signal;HPM_P1;HPM_P2
2022/07/07 00:02:20;;;;;;;3.00;2.60;;;24.50;58.80;;;;;;5111203;27;20388;-72
2022/07/07 00:04:45;;;;;;;2.75;2.50;;;24.40;58.80;;;;;;5110202;28;20404;-73
2022/07/07 00:07:15;;;;;;;3.08;2.78;;;24.40;58.80;;;;;;5111224;28;20401;-73
2022/07/07 00:09:41;;;;;;;3.20;2.90;;;24.40;58.80;;;;;;5111778;27;20423;-69
2022/07/07 00:12:08;;;;;;;2.70;2.50;;;24.40;58.80;;;;;;5110996;28;20388;-69
2022/07/07 00:14:34;;;;;;;3.10;2.80;;;24.40;58.70;;;;;;5110131;28;20412;-73
2022/07/07 00:17:01;;;;;;;2.80;2.50;;;24.40;58.70;;;;;;5076170;28;20384;-72
2022/07/07 00:19:27;;;;;;;3.88;2.60;;;24.40;58.60;;;;;;5092957;28;20904;-69
2022/07/07 00:21:54;;;;;;;3.30;2.58;;;24.40;58.60;;;;;;5110994;28;20384;-72
2022/07/07 00:24:20;;;;;;;2.77;2.57;;;24.40;59.20;;;;;;5109968;28;20393;-68
2022/07/07 00:26:47;;;;;;;2.95;2.75;;;24.40;58.50;;;;;;5111378;28;20418;-68
2022/07/07 00:29:14;;;;;;;3.50;2.77;;;24.40;58.40;;;;;;5111516;28;20532;-68
2022/07/07 00:31:40;;;;;;;3.05;2.75;;;24.40;58.50;;;;;;5109938;28;20490;-69
2022/07/07 00:34:06;;;;;;;2.88;2.58;;;24.40;58.40;;;;;;5108509;28;20404;-72
2022/07/07 00:36:32;;;;;;;3.85;2.97;;;24.40;58.40;;;;;;5111245;28;20812;-68
2022/07/07 00:38:58;;;;;;;2.92;2.63;;;24.40;58.40;;;;;;5092519;28;20858;-72
2022/07/07 00:41:24;;;;;;;2.90;2.63;;;24.40;58.20;;;;;;5111298;28;20431;-68
2022/07/07 00:43:51;;;;;;;2.67;2.47;;;24.40;58.30;;;;;;5110885;28;20454;-68
2022/07/07 00:46:19;;;;;;;2.72;2.53;;;24.40;58.30;;;;;;5110555;28;20387;-68
2022/07/07 00:48:45;;;;;;;2.85;2.60;;;24.40;58.40;;;;;;5110282;28;20421;-68
2022/07/07 00:51:15;;;;;;;3.13;2.87;;;24.40;58.30;;;;;;5108895;28;20400;-69
2022/07/07 00:53:43;;;;;;;2.88;2.67;;;24.40;58.30;;;;;;5110787;28;20391;-68
2022/07/07 00:56:09;;;;;;;2.80;2.60;;;24.40;58.20;;;;;;5108927;28;20388;-68
2022/07/07 00:58:36;;;;;;;2.60;2.40;;;24.40;58.20;;;;;;5110592;28;20399;-68
2022/07/07 01:01:03;;;;;;;3.10;2.80;;;24.40;58.20;;;;;;5110633;28;20388;-68
2022/07/07 01:03:29;;;;;;;3.10;2.90;;;24.40;58.30;;;;;;5109226;28;20882;-73
2022/07/07 01:05:57;;;;;;;2.97;2.78;;;24.40;58.20;;;;;;5110191;28;20416;-72
2022/07/07 01:08:23;;;;;;;2.88;2.60;;;24.40;58.30;;;;;;5107539;28;20388;-72
2022/07/07 01:10:52;;;;;;;2.85;2.55;;;24.40;58.20;;;;;;5109043;28;20399;-74
2022/07/07 01:13:18;;;;;;;2.67;2.33;;;24.40;58.20;;;;;;5110157;28;20467;-68
2022/07/07 01:15:45;;;;;;;2.75;2.50;;;24.40;58.20;;;;;;5107740;28;20409;-68
2022/07/07 01:18:11;;;;;;;2.80;2.60;;;24.40;58.20;;;;;;5109558;28;20473;-67
2022/07/07 01:20:41;;;;;;;2.95;2.70;;;24.40;58.20;;;;;;5110025;28;21219;-68
2022/07/07 01:23:09;;;;;;;2.83;2.63;;;24.30;58.10;;;;;;5109940;28;20445;-68
2022/07/07 01:25:36;;;;;;;2.85;2.65;;;24.40;58.10;;;;;;5108676;28;20396;-68
2022/07/07 01:28:06;;;;;;;2.72;2.53;;;24.40;58.20;;;;;;5109781;28;20377;-68
2022/07/07 01:30:32;;;;;;;2.60;2.40;;;24.40;58.00;;;;;;5108276;28;20443;-68
2022/07/07 01:32:59;;;;;;;2.53;2.33;;;24.40;58.00;;;;;;5108450;28;20424;-73
2022/07/07 01:35:25;;;;;;;2.70;2.45;;;24.30;58.10;;;;;;5109648;28;20392;-70
2022/07/07 01:37:51;;;;;;;2.80;2.60;;;24.30;58.00;;;;;;5109654;28;20403;-72
2022/07/07 01:40:18;;;;;;;3.15;2.85;;;24.40;57.90;;;;;;5109162;28;20440;-70
2022/07/07 01:42:45;;;;;;;2.80;2.50;;;24.40;58.00;;;;;;5109944;28;20391;-68
2022/07/07 01:45:12;;;;;;;3.08;2.78;;;24.30;57.90;;;;;;5109592;28;20392;-69
2022/07/07 01:47:39;;;;;;;3.05;2.53;;;24.30;57.70;;;;;;5109746;28;20487;-68
2022/07/07 01:50:05;;;;;;;2.90;2.50;;;24.40;57.90;;;;;;5108574;28;20400;-73
2022/07/07 01:52:39;;;;;;;4.55;2.55;;;24.30;57.60;;;;;;5109664;28;20384;-72
2022/07/07 01:55:05;;;;;;;2.97;2.78;;;24.30;57.60;;;;;;5107538;28;20396;-68
2022/07/07 01:57:32;;;;;;;2.50;2.30;;;24.30;57.70;;;;;;5109034;28;20492;-72
2022/07/07 01:59:58;;;;;;;2.63;2.30;;;24.40;58.40;;;;;;5107771;28;20419;-72
2022/07/07 02:02:25;;;;;;;2.75;2.50;;;24.40;57.70;;;;;;5109411;28;20469;-72
2022/07/07 02:04:51;;;;;;;2.83;2.63;;;24.30;57.80;;;;;;5109505;28;20391;-69
2022/07/07 02:07:17;;;;;;;2.58;2.38;;;24.30;57.80;;;;;;5108407;28;20739;-69
2022/07/07 02:09:42;;;;;;;2.78;2.50;;;24.30;57.60;;;;;;5107861;28;20408;-68
2022/07/07 02:12:10;;;;;;;2.80;2.60;;;24.30;57.50;;;;;;5107200;28;20395;-68
2022/07/07 02:14:37;;;;;;;2.78;2.58;;;24.30;57.50;;;;;;5107564;28;20938;-68
2022/07/07 02:17:04;;;;;;;2.90;2.67;;;24.30;58.10;;;;;;5107672;28;20385;-69
2022/07/07 02:19:31;;;;;;;3.10;2.80;;;24.30;57.60;;;;;;5108805;28;20405;-68
2022/07/07 02:22:00;;;;;;;2.92;2.72;;;24.30;57.60;;;;;;5108621;27;20461;-68
2022/07/07 02:24:27;;;;;;;3.35;2.70;;;24.30;57.70;;;;;;5106617;28;20429;-68
2022/07/07 02:26:53;;;;;;;2.60;2.40;;;24.30;57.60;;;;;;5107480;28;20411;-68
2022/07/07 02:29:19;;;;;;;2.60;2.30;;;24.30;57.70;;;;;;5107527;28;20436;-69
2022/07/07 02:31:45;;;;;;;2.50;2.30;;;24.30;57.80;;;;;;5073588;28;20815;-68
2022/07/07 02:34:11;;;;;;;2.40;2.20;;;24.30;57.80;;;;;;5090291;28;20562;-68
2022/07/07 02:36:38;;;;;;;2.97;2.67;;;24.30;57.80;;;;;;5108288;28;20380;-72
2022/07/07 02:39:10;;;;;;;3.15;2.85;;;24.30;57.80;;;;;;5108413;28;20420;-68
2022/07/07 02:41:36;;;;;;;2.60;2.40;;;24.30;57.70;;;;;;5107325;28;20392;-68
2022/07/07 02:44:02;;;;;;;2.60;2.40;;;24.30;57.70;;;;;;5108550;28;20396;-68
2022/07/07 02:46:29;;;;;;;2.70;2.50;;;24.30;57.70;;;;;;5107207;28;20905;-73
2022/07/07 02:48:55;;;;;;;2.75;2.20;;;24.30;57.80;;;;;;5111678;28;20475;-72
2022/07/07 02:51:21;;;;;;;2.70;2.50;;;24.30;57.70;;;;;;5111794;28;20475;-72
2022/07/07 02:53:47;;;;;;;2.37;2.13;;;24.30;57.80;;;;;;5110650;28;20384;-72
2022/07/07 02:56:12;;;;;;;2.88;2.67;;;24.30;57.70;;;;;;5144375;27;20476;-73
2022/07/07 02:58:38;;;;;;;3.00;2.60;;;24.30;57.80;;;;;;5111575;28;20395;-69
2022/07/07 03:01:04;;;;;;;2.70;2.50;;;24.30;57.60;;;;;;5110548;28;20407;-69
2022/07/07 03:03:29;;;;;;;2.88;2.60;;;24.30;57.60;;;;;;5111794;28;20873;-72
2022/07/07 03:05:55;;;;;;;2.47;2.27;;;24.30;58.00;;;;;;5111646;28;20420;-74
2022/07/07 03:08:21;;;;;;;3.10;2.72;;;24.30;57.70;;;;;;5111341;28;20430;-68
2022/07/07 03:10:46;;;;;;;2.60;2.40;;;24.30;59.00;;;;;;5111764;28;20979;-73
2022/07/07 03:13:12;;;;;;;2.97;2.55;;;24.30;58.70;;;;;;5111666;28;20820;-71
2022/07/07 03:15:39;;;;;;;5.37;2.53;;;24.30;59.20;;;;;;5111604;28;20389;-72
2022/07/07 03:18:04;;;;;;;3.73;3.07;;;24.30;59.00;;;;;;5109867;28;20993;-68
2022/07/07 03:20:30;;;;;;;3.60;2.95;;;24.40;60.80;;;;;;5111542;28;20420;-68
2022/07/07 03:22:56;;;;;;;4.90;2.80;;;24.50;60.80;;;;;;5111421;28;20380;-73
2022/07/07 03:25:21;;;;;;;4.25;2.60;;;24.50;60.90;;;;;;5143979;27;20388;-73
2022/07/07 03:27:47;;;;;;;5.87;2.80;;;24.50;61.00;;;;;;5110931;28;20389;-71
2022/07/07 03:30:13;;;;;;;3.70;2.63;;;24.60;61.20;;;;;;5109558;28;20885;-71
2022/07/07 03:32:39;;;;;;;3.30;3.00;;;24.60;61.50;;;;;;5112488;28;20388;-69
2022/07/07 03:35:07;;;;;;;3.45;2.90;;;24.60;61.60;;;;;;5115342;28;20403;-68
2022/07/07 03:37:33;;;;;;;5.18;2.55;;;24.70;61.70;;;;;;5115396;28;20490;-72
2022/07/07 03:39:59;;;;;;;5.93;2.55;;;24.60;60.10;;;;;;5114739;28;20495;-71
2022/07/07 03:42:25;;;;;;;7.07;3.03;;;24.60;61.00;;;;;;5113298;28;20395;-73
2022/07/07 03:44:52;;;;;;;4.30;2.90;;;24.60;60.90;;;;;;5114491;28;20419;-72
2022/07/07 03:47:17;;;;;;;3.73;2.80;;;24.60;60.90;;;;;;5114363;28;20380;-72
2022/07/07 03:49:43;;;;;;;3.00;2.58;;;24.70;60.70;;;;;;5113752;28;20449;-71
2022/07/07 03:52:08;;;;;;;5.73;3.13;;;24.70;60.50;;;;;;5113300;28;20388;-68
2022/07/07 03:54:34;;;;;;;5.40;2.70;;;24.60;59.60;;;;;;5115058;28;20388;-69
2022/07/07 03:57:00;;;;;;;4.80;2.70;;;24.60;59.80;;;;;;5115042;28;20372;-69
2022/07/07 03:59:26;;;;;;;6.07;3.30;;;24.60;58.80;;;;;;5114663;28;20412;-72
2022/07/07 04:01:51;;;;;;;6.45;3.08;;;24.60;59.10;;;;;;5114961;28;20401;-68
2022/07/07 04:04:17;;;;;;;5.10;3.13;;;24.50;59.20;;;;;;5112973;28;20471;-68
2022/07/07 04:06:43;;;;;;;6.15;2.90;;;24.50;58.30;;;;;;5114192;28;20597;-74
2022/07/07 04:09:09;;;;;;;6.50;3.00;;;24.40;57.40;;;;;;5114776;28;20437;-70
2022/07/07 04:11:35;;;;;;;9.98;3.20;;;24.50;57.30;;;;;;5113439;28;20392;-73
2022/07/07 04:14:01;;;;;;;12.52;3.20;;;24.40;56.70;;;;;;5113906;28;20433;-68
2022/07/07 04:16:29;;;;;;;8.48;3.05;;;24.40;56.10;;;;;;5114409;28;20384;-72
2022/07/07 04:18:57;;;;;;;7.78;3.17;;;24.40;55.70;;;;;;5114579;28;20412;-68
2022/07/07 04:21:23;;;;;;;5.75;3.38;;;24.30;55.30;;;;;;5114426;28;20433;-73
2022/07/07 04:23:48;;;;;;;6.53;3.40;;;24.30;54.70;;;;;;5114567;28;20475;-72
2022/07/07 04:26:14;;;;;;;5.55;3.03;;;24.30;53.40;;;;;;5113693;28;20402;-67
2022/07/07 04:28:39;;;;;;;6.53;3.40;;;24.30;53.90;;;;;;5114412;28;20862;-68
2022/07/07 04:31:05;;;;;;;4.77;3.00;;;24.30;54.00;;;;;;5114235;28;20388;-68
2022/07/07 04:33:31;;;;;;;3.75;3.05;;;24.20;54.20;;;;;;5113048;28;20388;-67
2022/07/07 04:35:56;;;;;;;5.97;3.10;;;24.20;54.40;;;;;;5147394;27;20913;-71
2022/07/07 04:38:22;;;;;;;6.70;3.35;;;24.20;54.50;;;;;;5112385;28;20800;-72
2022/07/07 04:40:48;;;;;;;5.82;2.92;;;24.20;54.50;;;;;;5114703;28;20404;-69
2022/07/07 04:43:13;;;;;;;5.35;2.90;;;24.20;54.90;;;;;;5148142;27;20387;-68
2022/07/07 04:45:39;;;;;;;5.13;2.83;;;24.20;54.80;;;;;;5113930;28;20388;-72
2022/07/07 04:48:05;;;;;;;5.57;2.87;;;24.30;55.10;;;;;;5113631;28;20414;-67
2022/07/07 04:50:31;;;;;;;3.83;2.72;;;24.20;54.90;;;;;;5113712;28;20393;-71
2022/07/07 04:52:56;;;;;;;5.40;2.50;;;24.20;55.20;;;;;;5111395;28;20384;-68
2022/07/07 04:55:22;;;;;;;4.75;2.60;;;24.20;55.50;;;;;;5113932;28;20437;-67
2022/07/07 04:57:48;;;;;;;3.00;2.60;;;24.30;56.20;;;;;;5113813;28;20394;-72
2022/07/07 05:00:15;;;;;;;3.45;2.50;;;24.30;56.50;;;;;;5112560;28;20432;-68
2022/07/07 05:02:40;;;;;;;4.60;3.13;;;24.30;57.00;;;;;;5112529;27;20952;-67
2022/07/07 05:05:07;;;;;;;4.55;2.78;;;24.30;56.70;;;;;;5111766;28;20438;-68
2022/07/07 05:07:33;;;;;;;4.88;2.53;;;24.30;56.40;;;;;;5113390;28;20426;-71
2022/07/07 05:09:59;;;;;;;5.00;2.90;;;24.30;56.20;;;;;;5112020;28;20418;-69
2022/07/07 05:12:24;;;;;;;3.47;2.57;;;24.30;56.20;;;;;;5111727;28;20439;-69
2022/07/07 05:14:50;;;;;;;5.68;2.88;;;24.30;56.20;;;;;;5113281;28;20389;-67
2022/07/07 05:17:16;;;;;;;3.50;2.93;;;24.30;56.20;;;;;;5113086;28;20422;-72
2022/07/07 05:19:42;;;;;;;4.78;2.75;;;24.30;56.10;;;;;;5113465;28;20416;-72
2022/07/07 05:22:07;;;;;;;3.60;2.97;;;24.30;56.20;;;;;;5112877;28;20889;-68
2022/07/07 05:24:33;;;;;;;4.47;2.63;;;24.30;56.20;;;;;;5112683;28;20487;-68
2022/07/07 05:26:59;;;;;;;4.30;2.60;;;24.30;56.30;;;;;;5112713;28;20409;-72
2022/07/07 05:29:26;;;;;;;4.97;2.80;;;24.20;56.30;;;;;;5111784;28;20391;-71
2022/07/07 05:31:52;;;;;;;4.00;2.70;;;24.30;56.40;;;;;;5112693;28;20422;-68
2022/07/07 05:34:17;;;;;;;4.47;2.83;;;24.20;56.50;;;;;;5112377;28;20506;-69
2022/07/07 05:36:43;;;;;;;3.83;2.97;;;24.20;56.50;;;;;;5112414;28;20886;-68
2022/07/07 05:39:08;;;;;;;3.77;2.70;;;24.30;56.60;;;;;;5112697;28;20396;-71
2022/07/07 05:41:34;;;;;;;3.90;3.00;;;24.30;56.70;;;;;;5112750;28;20817;-68
2022/07/07 05:44:00;;;;;;;3.13;2.77;;;24.30;56.70;;;;;;5111294;28;20396;-70
2022/07/07 05:46:25;;;;;;;3.03;2.73;;;24.30;56.80;;;;;;5110964;28;20384;-68
2022/07/07 05:48:51;;;;;;;3.90;2.72;;;24.30;56.70;;;;;;5113073;28;20388;-72
2022/07/07 05:51:17;;;;;;;3.27;2.70;;;24.20;56.70;;;;;;5115407;28;20487;-73
2022/07/07 05:53:43;;;;;;;5.38;2.70;;;24.30;56.90;;;;;;5108967;28;20901;-72
2022/07/07 05:56:09;;;;;;;4.43;2.70;;;24.30;56.90;;;;;;5092277;28;20405;-69
2022/07/07 05:58:34;;;;;;;4.03;2.67;;;24.30;56.90;;;;;;5090502;28;20383;-72
2022/07/07 06:01:00;;;;;;;5.47;2.83;;;24.30;56.90;;;;;;5090388;28;20414;-72
2022/07/07 06:03:25;;;;;;;4.63;2.70;;;24.30;56.90;;;;;;5091495;28;20456;-71
2022/07/07 06:05:51;;;;;;;4.27;2.70;;;24.30;56.80;;;;;;5091717;28;20426;-72
2022/07/07 06:08:18;;;;;;;3.70;2.35;;;24.20;56.70;;;;;;5091360;28;20481;-68
2022/07/07 06:10:43;;;;;;;2.85;2.50;;;24.20;56.70;;;;;;5091797;28;20505;-68
2022/07/07 06:13:09;;;;;;;3.80;2.70;;;24.20;56.70;;;;;;5091452;28;21051;-70
2022/07/07 06:15:35;;;;;;;3.20;2.45;;;24.20;56.90;;;;;;5091852;28;20440;-71
2022/07/07 06:18:02;;;;;;;3.20;2.70;;;24.20;56.80;;;;;;5089814;28;20767;-70
2022/07/07 06:20:29;;;;;;;2.95;2.40;;;24.20;56.90;;;;;;5091184;28;20417;-71
2022/07/07 06:22:54;;;;;;;2.70;2.40;;;24.20;56.90;;;;;;5124098;27;20440;-68
2022/07/07 06:25:20;;;;;;;3.83;2.60;;;24.20;56.90;;;;;;5091749;28;20464;-72
2022/07/07 06:27:46;;;;;;;3.38;2.45;;;24.20;57.00;;;;;;5091512;28;20385;-72
2022/07/07 06:30:12;;;;;;;2.90;2.60;;;24.20;56.90;;;;;;5091222;28;20420;-72
2022/07/07 06:32:37;;;;;;;2.47;2.28;;;24.20;57.00;;;;;;5091402;28;20390;-70
2022/07/07 06:35:04;;;;;;;2.53;2.33;;;24.20;57.00;;;;;;5090220;28;20963;-69
2022/07/07 06:37:30;;;;;;;3.80;2.90;;;24.20;57.00;;;;;;5091566;28;20406;-68
2022/07/07 06:39:55;;;;;;;2.60;2.40;;;24.20;57.10;;;;;;5091350;28;20961;-68
2022/07/07 06:42:21;;;;;;;3.13;2.70;;;24.20;57.10;;;;;;5090926;28;20394;-71
2022/07/07 06:44:47;;;;;;;3.00;2.70;;;24.20;57.10;;;;;;5091320;28;20381;-68
2022/07/07 06:47:12;;;;;;;3.77;2.60;;;24.20;57.00;;;;;;5091040;28;20390;-73
2022/07/07 06:49:38;;;;;;;3.30;2.65;;;24.20;57.30;;;;;;5091345;28;20378;-69
2022/07/07 06:52:04;;;;;;;3.20;2.60;;;24.20;57.00;;;;;;5089898;28;20403;-71
2022/07/07 06:54:30;;;;;;;3.42;2.55;;;24.20;57.00;;;;;;5123631;28;20386;-71
2022/07/07 06:56:55;;;;;;;3.10;2.60;;;24.20;57.00;;;;;;5089953;28;20817;-73
2022/07/07 06:59:21;;;;;;;3.05;2.70;;;24.20;57.10;;;;;;5089686;28;20990;-72
2022/07/07 07:01:48;;;;;;;2.50;2.30;;;24.20;57.10;;;;;;5091239;28;20743;-72
2022/07/07 07:04:14;;;;;;;2.60;2.40;;;24.20;57.00;;;;;;5090725;28;20446;-68
2022/07/07 07:06:41;;;;;;;2.83;2.60;;;24.20;57.00;;;;;;5091961;28;20489;-72
2022/07/07 07:09:07;;;;;;;3.30;3.00;;;24.20;57.10;;;;;;5095083;28;20393;-72
2022/07/07 07:11:32;;;;;;;3.08;2.60;;;24.20;57.10;;;;;;5093863;28;20382;-71
2022/07/07 07:14:01;;;;;;;2.72;2.53;;;24.20;57.30;;;;;;5095218;28;20386;-71
2022/07/07 07:16:27;;;;;;;2.70;2.50;;;24.10;57.20;;;;;;5094719;28;20393;-72
2022/07/07 07:18:52;;;;;;;2.65;2.40;;;24.10;57.10;;;;;;5094928;28;20386;-72
2022/07/07 07:21:18;;;;;;;3.00;2.50;;;24.20;57.30;;;;;;5095144;28;20405;-72
2022/07/07 07:23:44;;;;;;;2.90;2.60;;;24.10;57.30;;;;;;5093745;28;20396;-69
2022/07/07 07:26:09;;;;;;;3.07;2.70;;;24.10;57.10;;;;;;5094876;28;20392;-70
2022/07/07 07:28:35;;;;;;;2.90;2.60;;;24.20;57.30;;;;;;5093406;28;20389;-72
2022/07/07 07:31:01;;;;;;;3.13;2.40;;;24.10;57.00;;;;;;5093715;28;20790;-68
2022/07/07 07:33:28;;;;;;;2.95;2.40;;;24.20;57.30;;;;;;5128135;27;20390;-68
2022/07/07 07:35:54;;;;;;;3.53;2.67;;;24.10;57.20;;;;;;5094751;28;20439;-68
2022/07/07 07:38:20;;;;;;;2.80;2.50;;;24.10;57.20;;;;;;5093131;28;20390;-69
2022/07/07 07:40:45;;;;;;;2.70;2.50;;;24.10;57.20;;;;;;5093379;28;20452;-69
2022/07/07 07:43:11;;;;;;;3.00;2.57;;;24.10;57.20;;;;;;5094701;28;20412;-71
2022/07/07 07:45:38;;;;;;;3.10;2.75;;;24.10;57.40;;;;;;5093225;28;20386;-70
2022/07/07 07:48:04;;;;;;;2.50;2.30;;;24.10;57.30;;;;;;5094379;28;20386;-72
2022/07/07 07:50:31;;;;;;;2.60;2.40;;;24.10;57.20;;;;;;5094196;28;20385;-71
2022/07/07 07:52:58;;;;;;;3.38;2.60;;;24.10;57.30;;;;;;5127206;27;20390;-73
2022/07/07 07:55:25;;;;;;;2.90;2.60;;;24.10;57.60;;;;;;5076915;28;20413;-71
2022/07/07 07:57:51;;;;;;;2.72;2.50;;;24.10;57.60;;;;;;5093955;28;20851;-71
2022/07/07 08:00:19;;;;;;;2.70;2.50;;;24.10;57.60;;;;;;5093849;28;20439;-71
2022/07/07 08:02:47;;;;;;;3.28;2.63;;;24.10;57.50;;;;;;5094352;28;20393;-70
2022/07/07 08:05:16;;;;;;;3.22;2.80;;;24.20;57.50;;;;;;5127190;27;20428;-69
2022/07/07 08:07:43;;;;;;;3.40;2.67;;;24.20;57.80;;;;;;5094009;28;20405;-72
2022/07/07 08:10:10;;;;;;;3.38;2.60;;;24.20;57.80;;;;;;5094283;28;20401;-73
2022/07/07 08:12:36;;;;;;;2.75;2.50;;;24.20;58.50;;;;;;5093998;28;20859;-69
2022/07/07 08:15:04;;;;;;;2.70;2.40;;;24.20;57.90;;;;;;5094000;28;20473;-71
2022/07/07 08:17:29;;;;;;;3.20;2.42;;;24.20;58.00;;;;;;5093363;28;20382;-72
2022/07/07 08:19:55;;;;;;;3.20;2.60;;;24.10;58.00;;;;;;5093542;28;20551;-68
2022/07/07 08:22:20;;;;;;;4.37;2.70;;;24.10;58.10;;;;;;5093368;28;20390;-67
2022/07/07 08:24:46;;;;;;;3.22;2.60;;;24.10;58.30;;;;;;5104845;27;20443;-68
2022/07/07 08:27:12;;;;;;;4.47;2.80;;;24.20;58.20;;;;;;5121858;27;20431;-71
2022/07/07 08:29:38;;;;;;;4.13;2.90;;;24.20;58.60;;;;;;5123209;27;20388;-67
2022/07/07 08:32:08;;;;;;;3.80;2.50;;;24.20;59.10;;;;;;5123663;27;20386;-68
2022/07/07 08:34:34;;;;;;;2.70;2.40;;;24.30;59.10;;;;;;5108860;27;20403;-67
2022/07/07 08:37:00;;;;;;;4.50;3.10;;;24.30;59.10;;;;;;5113387;27;20399;-71
2022/07/07 08:39:26;;;;;;;3.08;2.60;;;24.30;58.40;;;;;;5113870;28;20479;-72
2022/07/07 08:41:52;;;;;;;3.35;2.97;;;24.30;58.30;;;;;;5109561;28;20404;-71
2022/07/07 08:44:18;;;;;;;3.27;2.60;;;24.30;58.10;;;;;;5113304;28;20423;-71
2022/07/07 08:46:44;;;;;;;2.85;2.55;;;24.30;57.90;;;;;;5113829;28;20391;-70
2022/07/07 08:49:10;;;;;;;2.75;2.50;;;24.30;57.80;;;;;;5113482;28;20389;-68
2022/07/07 08:51:43;;;;;;;2.88;2.55;;;24.30;57.80;;;;;;5113656;28;20380;-70
2022/07/07 08:54:11;;;;;;;3.22;2.90;;;24.30;57.70;;;;;;5112000;28;20513;-73
2022/07/07 08:56:40;;;;;;;3.08;2.70;;;24.30;57.80;;;;;;5113384;28;20396;-69
2022/07/07 08:59:11;;;;;;;3.20;2.60;;;24.30;58.20;;;;;;5113986;28;20487;-68
2022/07/07 09:01:37;;;;;;;4.60;2.47;;;24.30;58.10;;;;;;5113631;28;20479;-71
2022/07/07 09:04:03;;;;;;;3.30;2.60;;;24.30;58.20;;;;;;5113288;28;20384;-72
2022/07/07 09:06:29;;;;;;;2.80;2.60;;;24.30;58.20;;;;;;5112943;28;20883;-68
2022/07/07 09:08:56;;;;;;;2.85;2.55;;;24.30;58.30;;;;;;5113415;28;20412;-67
2022/07/07 09:11:32;;;;;;;4.10;2.70;;;24.30;58.30;;;;;;5113460;28;20860;-71
2022/07/07 09:14:10;;;;;;;3.00;2.60;;;24.30;58.30;;;;;;5113280;28;20836;-69
2022/07/07 09:16:37;;;;;;;3.05;2.42;;;24.20;58.30;;;;;;5112947;28;20390;-71
2022/07/07 09:19:05;;;;;;;2.63;2.30;;;24.20;58.20;;;;;;5113026;28;20451;-71
2022/07/07 09:21:32;;;;;;;2.83;2.33;;;24.20;58.30;;;;;;5113116;28;20864;-67
2022/07/07 09:24:05;;;;;;;2.77;2.47;;;24.20;58.30;;;;;;5111788;28;20392;-69
2022/07/07 09:26:39;;;;;;;3.00;2.27;;;24.20;58.30;;;;;;5112817;28;20464;-71
2022/07/07 09:29:07;;;;;;;3.00;2.70;;;24.20;58.30;;;;;;5112106;28;20418;-67
2022/07/07 09:31:58;;;;;;;2.70;2.50;;;24.20;58.30;;;;;;5111589;28;20499;-67
2022/07/07 09:34:30;;;;;;;3.15;2.80;;;24.20;58.30;;;;;;5112479;28;20385;-67
2022/07/07 09:39:42;;;;;;;3.33;2.60;;;24.20;58.20;;;;;;5112953;28;20399;-67
2022/07/07 09:42:21;;;;;;;2.60;2.40;;;24.20;58.20;;;;;;5112720;28;20896;-70
2022/07/07 09:44:50;;;;;;;3.20;2.60;;;24.20;58.10;;;;;;5111253;28;20437;-67
2022/07/07 09:47:15;;;;;;;2.78;2.55;;;24.20;58.20;;;;;;5111448;28;20404;-66
2022/07/07 09:49:57;;;;;;;2.40;2.20;;;24.20;58.10;;;;;;5111007;28;20432;-67
2022/07/07 09:52:23;;;;;;;3.30;2.40;;;24.20;58.20;;;;;;5112285;28;20903;-70
2022/07/07 09:54:49;;;;;;;3.00;2.63;;;24.20;57.90;;;;;;5111206;28;20395;-70
2022/07/07 09:57:16;;;;;;;2.78;2.58;;;24.20;58.00;;;;;;5112357;28;20912;-66
2022/07/07 09:59:42;;;;;;;2.78;2.50;;;24.20;58.00;;;;;;5112582;28;20769;-71
2022/07/07 10:02:20;;;;;;;2.90;2.60;;;24.20;58.10;;;;;;5111124;28;20396;-69
2022/07/07 10:04:55;;;;;;;2.90;2.60;;;24.20;58.10;;;;;;5110781;28;20396;-67
2022/07/07 10:07:25;;;;;;;2.90;2.67;;;24.20;58.10;;;;;;5112219;28;20392;-70
2022/07/07 10:09:56;;;;;;;2.60;2.40;;;24.20;58.00;;;;;;5108572;28;20553;-69
2022/07/07 10:12:27;;;;;;;2.88;2.67;;;24.20;58.00;;;;;;5110534;28;20881;-67
2022/07/07 10:15:01;;;;;;;2.90;2.70;;;24.20;58.00;;;;;;5110864;28;20428;-68
2022/07/07 10:17:27;;;;;;;2.88;2.60;;;24.20;58.00;;;;;;5110809;28;20384;-67
2022/07/07 10:19:53;;;;;;;3.10;2.80;;;24.20;57.90;;;;;;5110763;28;20925;-67
2022/07/07 10:22:26;;;;;;;2.63;2.42;;;24.20;57.90;;;;;;5110619;28;20384;-68
2022/07/07 10:24:55;;;;;;;2.50;2.30;;;24.20;57.80;;;;;;5111851;28;20388;-70
2022/07/07 10:27:22;;;;;;;2.53;2.30;;;24.20;57.80;;;;;;5110559;28;20388;-71
2022/07/07 10:29:50;;;;;;;2.83;2.50;;;24.20;58.10;;;;;;5113120;28;20399;-69
2022/07/07 10:32:39;;;;;;;2.60;2.40;;;24.10;57.90;;;;;;5110699;28;20399;-67
2022/07/07 10:35:13;;;;;;;2.70;2.50;;;24.10;57.80;;;;;;5111943;28;20384;-71
2022/07/07 10:37:44;;;;;;;3.47;2.45;;;24.10;58.00;;;;;;5111501;28;20383;-68
2022/07/07 10:40:28;;;;;;;4.15;2.40;;;24.10;58.10;;;;;;5140748;27;20417;-69
2022/07/07 10:43:21;;;;;;;3.13;2.57;;;24.10;58.10;;;;;;5107977;28;20390;-69
2022/07/07 10:45:49;;;;;;;3.70;2.60;;;24.10;58.00;;;;;;5108473;28;20415;-68
2022/07/07 10:48:51;;;;;;;3.00;2.65;;;24.20;58.00;;;;;;5110633;28;20381;-67
2022/07/07 10:51:24;;;;;;;3.93;2.60;;;24.10;57.80;;;;;;5108413;28;20417;-69
2022/07/07 10:54:10;;;;;;;3.45;2.47;;;24.10;57.90;;;;;;5108576;28;20387;-66
2022/07/07 10:56:51;;;;;;;2.90;2.60;;;24.10;57.80;;;;;;5107797;28;20404;-70
2022/07/07 10:59:18;;;;;;;3.50;2.80;;;24.10;57.90;;;;;;5109547;28;20491;-68
2022/07/07 11:02:15;;;;;;;3.22;2.78;;;24.10;57.70;;;;;;5111162;28;20881;-68
2022/07/07 11:04:47;;;;;;;2.90;2.50;;;24.10;57.70;;;;;;5076493;28;20392;-69
2022/07/07 11:07:16;;;;;;;4.10;2.63;;;24.10;57.90;;;;;;5111611;28;20433;-69
2022/07/07 11:10:05;;;;;;;3.10;2.58;;;24.10;57.80;;;;;;5111737;28;20395;-69
2022/07/07 11:12:35;;;;;;;4.85;2.63;;;24.10;57.70;;;;;;5111453;28;20400;-69
2022/07/07 11:15:22;;;;;;;4.03;2.47;;;24.10;57.60;;;;;;5110414;28;20421;-69
2022/07/07 11:17:57;;;;;;;3.47;2.53;;;24.10;57.70;;;;;;5112513;28;20388;-70
2022/07/07 11:20:24;;;;;;;3.35;2.65;;;24.10;57.70;;;;;;5111325;28;20485;-70
2022/07/07 11:22:53;;;;;;;3.47;2.60;;;24.10;57.60;;;;;;5110478;28;20389;-70
2022/07/07 11:25:21;;;;;;;4.03;3.10;;;24.10;57.70;;;;;;5110123;28;20384;-69
2022/07/07 11:27:49;;;;;;;3.42;2.50;;;24.10;57.60;;;;;;5111265;28;20416;-70
2022/07/07 11:30:15;;;;;;;5.18;2.75;;;24.10;57.80;;;;;;5111552;28;20388;-69
2022/07/07 11:32:43;;;;;;;4.43;2.80;;;24.10;57.70;;;;;;5109774;28;20491;-70
2022/07/07 11:35:13;;;;;;;4.90;2.80;;;24.10;57.60;;;;;;5110066;28;20892;-69
2022/07/07 11:37:42;;;;;;;3.95;2.67;;;24.10;57.80;;;;;;5111548;28;20828;-70
2022/07/07 11:40:14;;;;;;;4.63;2.90;;;24.10;57.90;;;;;;5109967;28;20908;-68
2022/07/07 11:42:43;;;;;;;5.05;2.80;;;24.10;58.10;;;;;;5106890;28;20446;-70
2022/07/07 11:45:26;;;;;;;5.18;2.70;;;24.10;58.80;;;;;;5110922;28;20459;-70
2022/07/07 11:47:55;;;;;;;5.72;2.80;;;24.10;58.20;;;;;;5110025;28;20716;-70
2022/07/07 11:50:21;;;;;;;7.77;3.00;;;24.00;58.70;;;;;;5109831;28;20477;-69
2022/07/07 11:52:54;;;;;;;4.72;2.80;;;24.10;58.20;;;;;;5111759;28;20918;-70
2022/07/07 11:55:20;;;;;;;4.30;2.78;;;24.10;58.00;;;;;;5114962;28;20380;-70
2022/07/07 11:57:54;;;;;;;3.20;2.70;;;24.10;58.10;;;;;;5113880;28;20930;-70
2022/07/07 12:00:24;;;;;;;4.43;2.90;;;24.10;58.10;;;;;;5114633;28;20466;-70
2022/07/07 12:02:51;;;;;;;4.18;2.60;;;24.10;58.10;;;;;;5113070;28;20389;-70
2022/07/07 12:05:19;;;;;;;3.13;2.80;;;24.10;58.10;;;;;;5114202;28;20384;-70
2022/07/07 12:07:56;;;;;;;3.03;2.72;;;24.10;58.10;;;;;;5114562;28;20403;-71
2022/07/07 12:10:23;;;;;;;3.43;2.83;;;24.00;58.00;;;;;;5113667;28;20369;-69
2022/07/07 12:13:04;;;;;;;3.22;2.50;;;24.10;58.10;;;;;;5113938;28;20389;-68
2022/07/07 12:15:38;;;;;;;3.17;2.60;;;24.10;58.10;;;;;;5113832;28;20397;-71
2022/07/07 12:18:05;;;;;;;4.50;2.70;;;24.00;58.10;;;;;;5114617;28;20514;-71
2022/07/07 12:20:31;;;;;;;2.78;2.40;;;24.00;58.10;;;;;;5113793;28;20476;-70
2022/07/07 12:22:59;;;;;;;3.25;2.50;;;24.00;58.10;;;;;;5114520;28;20443;-70
2022/07/07 12:25:27;;;;;;;4.55;2.60;;;24.00;58.10;;;;;;5114610;28;20381;-69
2022/07/07 12:27:56;;;;;;;3.50;2.70;;;24.00;58.10;;;;;;5114568;28;20419;-71
2022/07/07 12:30:24;;;;;;;3.28;2.58;;;24.00;58.10;;;;;;5114002;28;20392;-68
2022/07/07 12:32:50;;;;;;;3.03;2.60;;;24.10;58.20;;;;;;5108264;28;20918;-70
2022/07/07 12:35:34;;;;;;;3.30;2.70;;;24.00;58.10;;;;;;5109045;28;21191;-71
2022/07/07 12:38:03;;;;;;;3.78;2.67;;;24.00;58.10;;;;;;5110181;28;20389;-68
2022/07/07 12:40:31;;;;;;;3.40;2.70;;;24.00;58.10;;;;;;5109043;28;20476;-69
2022/07/07 12:43:03;;;;;;;2.50;2.30;;;24.00;58.10;;;;;;5110897;28;20723;-73
2022/07/07 12:45:31;;;;;;;4.22;2.70;;;24.00;58.20;;;;;;5109947;28;20436;-69
2022/07/07 12:47:58;;;;;;;3.28;2.97;;;24.00;58.20;;;;;;5093526;28;20871;-68
2022/07/07 12:50:26;;;;;;;3.30;3.00;;;24.10;58.20;;;;;;5110340;28;20389;-69
2022/07/07 12:53:08;;;;;;;3.50;2.90;;;24.00;58.20;;;;;;5112174;27;20483;-70
2022/07/07 12:55:41;;;;;;;2.70;2.50;;;24.00;58.20;;;;;;5114503;27;20870;-69